sensor_id;sensor_type;location;lat;lon;timestamp;P1;durP1;ratioP1;P2;durP2;ratioP2
22843;SDS011;11588;51.178;4.852;2023-11-21T00:00:30;5.75;;;2.55;;
22843;SDS011;11588;51.178;4.852;2023-11-21T00:02:56;6.55;;;3.78;;
22843;SDS011;11588;51.178;4.852;2023-11-21T00:05:23;11.20;;;3.15;;
22843;SDS011;11588;51.178;4.852;2023-11-21T00:07:49;9.10;;;4.68;;
22843;SDS011;11588;51.178;4.852;2023-11-21T00:10:16;5.90;;;2.17;;
22843;SDS011;11588;51.178;4.852;2023-11-21T00:12:42;6.70;;;3.25;;
22843;SDS011;11588;51.178;4.852;2023-11-21T00:15:09;4.55;;;3.08;;
22843;SDS011;11588;51.178;4.852;2023-11-21T00:17:37;6.88;;;4.80;;
22843;SDS011;11588;51.178;4.852;2023-11-21T00:20:04;11.32;;;3.85;;
22843;SDS011;11588;51.178;4.852;2023-11-21T00:22:33;3.58;;;3.25;;
22843;SDS011;11588;51.178;4.852;2023-11-21T00:25:00;2.47;;;2.17;;
22843;SDS011;11588;51.178;4.852;2023-11-21T00:27:25;10.35;;;3.47;;
22843;SDS011;11588;51.178;4.852;2023-11-21T00:29:51;2.17;;;1.85;;
22843;SDS011;11588;51.178;4.852;2023-11-21T00:32:18;6.13;;;4.25;;
22843;SDS011;11588;51.178;4.852;2023-11-21T00:34:44;4.25;;;3.13;;
22843;SDS011;11588;51.178;4.852;2023-11-21T00:37:20;3.75;;;2.72;;
22843;SDS011;11588;51.178;4.852;2023-11-21T00:39:46;4.53;;;3.50;;
22843;SDS011;11588;51.178;4.852;2023-11-21T00:42:16;5.07;;;3.25;;
22843;SDS011;11588;51.178;4.852;2023-11-21T00:44:43;11.63;;;4.22;;
22843;SDS011;11588;51.178;4.852;2023-11-21T00:47:10;5.18;;;3.70;;
22843;SDS011;11588;51.178;4.852;2023-11-21T00:49:35;4.90;;;3.28;;
22843;SDS011;11588;51.178;4.852;2023-11-21T00:52:02;4.38;;;2.92;;
22843;SDS011;11588;51.178;4.852;2023-11-21T00:54:29;4.05;;;3.03;;
22843;SDS011;11588;51.178;4.852;2023-11-21T00:56:58;3.40;;;2.30;;
22843;SDS011;11588;51.178;4.852;2023-11-21T00:59:25;4.15;;;2.55;;
22843;SDS011;11588;51.178;4.852;2023-11-21T01:01:51;4.63;;;3.20;;
22843;SDS011;11588;51.178;4.852;2023-11-21T01:04:19;5.95;;;3.88;;
22843;SDS011;11588;51.178;4.852;2023-11-21T01:06:46;3.50;;;2.50;;
22843;SDS011;11588;51.178;4.852;2023-11-21T01:09:12;2.28;;;1.92;;
22843;SDS011;11588;51.178;4.852;2023-11-21T01:11:37;3.85;;;2.90;;
22843;SDS011;11588;51.178;4.852;2023-11-21T01:14:04;5.53;;;3.58;;
22843;SDS011;11588;51.178;4.852;2023-11-21T01:16:30;7.43;;;3.33;;
22843;SDS011;11588;51.178;4.852;2023-11-21T01:18:58;5.68;;;3.63;;
22843;SDS011;11588;51.178;4.852;2023-11-21T01:21:25;7.25;;;4.15;;
22843;SDS011;11588;51.178;4.852;2023-11-21T01:23:51;3.33;;;2.90;;
22843;SDS011;11588;51.178;4.852;2023-11-21T01:26:18;4.70;;;3.40;;
22843;SDS011;11588;51.178;4.852;2023-11-21T01:28:44;5.43;;;3.20;;
22843;SDS011;11588;51.178;4.852;2023-11-21T01:31:11;4.10;;;3.25;;
22843;SDS011;11588;51.178;4.852;2023-11-21T01:33:41;5.60;;;3.53;;
22843;SDS011;11588;51.178;4.852;2023-11-21T01:36:08;4.43;;;3.35;;
22843;SDS011;11588;51.178;4.852;2023-11-21T01:38:34;7.72;;;4.15;;
22843;SDS011;11588;51.178;4.852;2023-11-21T01:41:00;7.35;;;4.70;;
22843;SDS011;11588;51.178;4.852;2023-11-21T01:43:28;9.00;;;3.78;;
22843;SDS011;11588;51.178;4.852;2023-11-21T01:45:56;6.60;;;3.10;;
22843;SDS011;11588;51.178;4.852;2023-11-21T01:48:24;10.48;;;4.28;;
22843;SDS011;11588;51.178;4.852;2023-11-21T01:50:51;9.82;;;3.47;;
22843;SDS011;11588;51.178;4.852;2023-11-21T01:53:17;3.58;;;2.83;;
22843;SDS011;11588;51.178;4.852;2023-11-21T01:55:44;4.47;;;3.30;;
22843;SDS011;11588;51.178;4.852;2023-11-21T01:58:11;3.33;;;3.03;;
22843;SDS011;11588;51.178;4.852;2023-11-21T02:00:39;6.45;;;3.05;;
22843;SDS011;11588;51.178;4.852;2023-11-21T02:03:05;4.20;;;3.45;;
22843;SDS011;11588;51.178;4.852;2023-11-21T02:05:32;7.75;;;3.10;;
22843;SDS011;11588;51.178;4.852;2023-11-21T02:08:01;10.73;;;4.72;;
22843;SDS011;11588;51.178;4.852;2023-11-21T02:10:27;2.28;;;2.08;;
22843;SDS011;11588;51.178;4.852;2023-11-21T02:12:54;7.82;;;3.78;;
22843;SDS011;11588;51.178;4.852;2023-11-21T02:15:21;7.88;;;4.40;;
22843;SDS011;11588;51.178;4.852;2023-11-21T02:17:48;5.78;;;2.38;;
22843;SDS011;11588;51.178;4.852;2023-11-21T02:20:16;10.85;;;3.95;;
22843;SDS011;11588;51.178;4.852;2023-11-21T02:22:43;3.13;;;2.83;;
22843;SDS011;11588;51.178;4.852;2023-11-21T02:25:09;4.43;;;3.88;;
22843;SDS011;11588;51.178;4.852;2023-11-21T02:27:36;6.10;;;3.95;;
22843;SDS011;11588;51.178;4.852;2023-11-21T02:30:03;5.15;;;2.90;;
22843;SDS011;11588;51.178;4.852;2023-11-21T02:32:31;4.82;;;3.35;;
22843;SDS011;11588;51.178;4.852;2023-11-21T02:34:57;6.07;;;2.95;;
22843;SDS011;11588;51.178;4.852;2023-11-21T02:37:28;4.33;;;2.90;;
22843;SDS011;11588;51.178;4.852;2023-11-21T02:39:55;3.53;;;3.00;;
22843;SDS011;11588;51.178;4.852;2023-11-21T02:42:23;3.53;;;2.33;;
22843;SDS011;11588;51.178;4.852;2023-11-21T02:44:49;4.80;;;3.15;;
22843;SDS011;11588;51.178;4.852;2023-11-21T02:47:16;3.45;;;2.28;;
22843;SDS011;11588;51.178;4.852;2023-11-21T02:49:42;3.55;;;2.13;;
22843;SDS011;11588;51.178;4.852;2023-11-21T02:52:09;5.05;;;4.55;;
22843;SDS011;11588;51.178;4.852;2023-11-21T02:54:35;3.28;;;2.47;;
22843;SDS011;11588;51.178;4.852;2023-11-21T02:57:02;8.25;;;4.43;;
22843;SDS011;11588;51.178;4.852;2023-11-21T02:59:29;8.07;;;4.47;;
22843;SDS011;11588;51.178;4.852;2023-11-21T03:01:56;4.88;;;2.55;;
22843;SDS011;11588;51.178;4.852;2023-11-21T03:04:23;3.88;;;2.53;;
22843;SDS011;11588;51.178;4.852;2023-11-21T03:06:49;4.88;;;2.67;;
22843;SDS011;11588;51.178;4.852;2023-11-21T03:09:16;3.95;;;2.92;;
22843;SDS011;11588;51.178;4.852;2023-11-21T03:11:43;3.15;;;1.85;;
22843;SDS011;11588;51.178;4.852;2023-11-21T03:14:09;9.65;;;3.22;;
22843;SDS011;11588;51.178;4.852;2023-11-21T03:16:37;4.65;;;2.33;;
22843;SDS011;11588;51.178;4.852;2023-11-21T03:19:04;7.28;;;3.65;;
22843;SDS011;11588;51.178;4.852;2023-11-21T03:21:31;2.85;;;2.58;;
22843;SDS011;11588;51.178;4.852;2023-11-21T03:23:58;6.60;;;4.07;;
22843;SDS011;11588;51.178;4.852;2023-11-21T03:26:25;3.05;;;2.50;;
22843;SDS011;11588;51.178;4.852;2023-11-21T03:28:52;10.15;;;4.38;;
22843;SDS011;11588;51.178;4.852;2023-11-21T03:31:19;16.83;;;3.63;;
22843;SDS011;11588;51.178;4.852;2023-11-21T03:33:46;4.28;;;3.63;;
22843;SDS011;11588;51.178;4.852;2023-11-21T03:36:13;5.43;;;2.70;;
22843;SDS011;11588;51.178;4.852;2023-11-21T03:38:41;5.82;;;2.75;;
22843;SDS011;11588;51.178;4.852;2023-11-21T03:41:08;4.78;;;2.97;;
22843;SDS011;11588;51.178;4.852;2023-11-21T03:43:37;5.07;;;2.70;;
22843;SDS011;11588;51.178;4.852;2023-11-21T03:46:04;3.92;;;3.55;;
22843;SDS011;11588;51.178;4.852;2023-11-21T03:48:31;3.67;;;3.25;;
22843;SDS011;11588;51.178;4.852;2023-11-21T03:50:59;9.57;;;5.28;;
22843;SDS011;11588;51.178;4.852;2023-11-21T03:53:25;7.53;;;3.55;;
22843;SDS011;11588;51.178;4.852;2023-11-21T03:55:52;2.13;;;1.80;;
22843;SDS011;11588;51.178;4.852;2023-11-21T03:58:18;4.65;;;2.50;;
22843;SDS011;11588;51.178;4.852;2023-11-21T04:00:46;3.53;;;2.47;;
22843;SDS011;11588;51.178;4.852;2023-11-21T04:03:13;5.03;;;3.40;;
22843;SDS011;11588;51.178;4.852;2023-11-21T04:05:40;3.15;;;2.45;;
22843;SDS011;11588;51.178;4.852;2023-11-21T04:08:07;4.65;;;2.40;;
22843;SDS011;11588;51.178;4.852;2023-11-21T04:10:34;7.47;;;3.50;;
22843;SDS011;11588;51.178;4.852;2023-11-21T04:13:01;4.82;;;2.72;;
22843;SDS011;11588;51.178;4.852;2023-11-21T04:15:28;2.50;;;1.55;;
22843;SDS011;11588;51.178;4.852;2023-11-21T04:17:54;4.07;;;2.58;;
22843;SDS011;11588;51.178;4.852;2023-11-21T04:20:23;4.85;;;2.78;;
22843;SDS011;11588;51.178;4.852;2023-11-21T04:22:49;2.63;;;2.42;;
22843;SDS011;11588;51.178;4.852;2023-11-21T04:25:16;2.83;;;2.45;;
22843;SDS011;11588;51.178;4.852;2023-11-21T04:27:43;10.23;;;3.35;;
22843;SDS011;11588;51.178;4.852;2023-11-21T04:30:11;4.53;;;2.67;;
22843;SDS011;11588;51.178;4.852;2023-11-21T04:32:37;5.93;;;3.63;;
22843;SDS011;11588;51.178;4.852;2023-11-21T04:35:05;5.35;;;2.92;;
22843;SDS011;11588;51.178;4.852;2023-11-21T04:37:32;7.15;;;3.17;;
22843;SDS011;11588;51.178;4.852;2023-11-21T04:39:59;6.53;;;4.43;;
22843;SDS011;11588;51.178;4.852;2023-11-21T04:42:25;5.72;;;3.88;;
22843;SDS011;11588;51.178;4.852;2023-11-21T04:44:52;2.72;;;2.50;;
22843;SDS011;11588;51.178;4.852;2023-11-21T04:47:18;13.25;;;2.63;;
22843;SDS011;11588;51.178;4.852;2023-11-21T04:49:46;2.63;;;2.40;;
22843;SDS011;11588;51.178;4.852;2023-11-21T04:52:13;5.97;;;3.03;;
22843;SDS011;11588;51.178;4.852;2023-11-21T04:54:40;7.47;;;4.05;;
22843;SDS011;11588;51.178;4.852;2023-11-21T04:57:06;2.05;;;1.75;;
22843;SDS011;11588;51.178;4.852;2023-11-21T04:59:34;3.97;;;2.60;;
22843;SDS011;11588;51.178;4.852;2023-11-21T05:02:01;5.38;;;2.67;;
22843;SDS011;11588;51.178;4.852;2023-11-21T05:04:29;4.10;;;3.03;;
22843;SDS011;11588;51.178;4.852;2023-11-21T05:06:55;6.07;;;3.35;;
22843;SDS011;11588;51.178;4.852;2023-11-21T05:09:22;6.03;;;3.17;;
22843;SDS011;11588;51.178;4.852;2023-11-21T05:11:49;3.10;;;2.65;;
22843;SDS011;11588;51.178;4.852;2023-11-21T05:14:16;8.85;;;3.28;;
22843;SDS011;11588;51.178;4.852;2023-11-21T05:16:43;3.90;;;3.53;;
22843;SDS011;11588;51.178;4.852;2023-11-21T05:19:09;2.60;;;2.20;;
22843;SDS011;11588;51.178;4.852;2023-11-21T05:21:36;2.35;;;2.20;;
22843;SDS011;11588;51.178;4.852;2023-11-21T05:24:03;7.80;;;3.45;;
22843;SDS011;11588;51.178;4.852;2023-11-21T05:26:30;10.13;;;4.10;;
22843;SDS011;11588;51.178;4.852;2023-11-21T05:28:56;3.70;;;2.97;;
22843;SDS011;11588;51.178;4.852;2023-11-21T05:31:23;4.97;;;3.40;;
22843;SDS011;11588;51.178;4.852;2023-11-21T05:33:49;6.53;;;4.00;;
22843;SDS011;11588;51.178;4.852;2023-11-21T05:36:16;5.28;;;3.00;;
22843;SDS011;11588;51.178;4.852;2023-11-21T05:38:43;4.10;;;2.75;;
22843;SDS011;11588;51.178;4.852;2023-11-21T05:41:09;5.30;;;2.58;;
22843;SDS011;11588;51.178;4.852;2023-11-21T05:43:41;4.03;;;3.63;;
22843;SDS011;11588;51.178;4.852;2023-11-21T05:46:08;9.15;;;4.13;;
22843;SDS011;11588;51.178;4.852;2023-11-21T05:48:35;6.20;;;3.53;;
22843;SDS011;11588;51.178;4.852;2023-11-21T05:51:05;7.20;;;3.85;;
22843;SDS011;11588;51.178;4.852;2023-11-21T05:53:31;3.78;;;2.42;;
22843;SDS011;11588;51.178;4.852;2023-11-21T05:55:58;4.10;;;3.53;;
22843;SDS011;11588;51.178;4.852;2023-11-21T05:58:24;9.48;;;4.70;;
22843;SDS011;11588;51.178;4.852;2023-11-21T06:00:51;5.35;;;3.00;;
22843;SDS011;11588;51.178;4.852;2023-11-21T06:03:17;7.47;;;3.00;;
22843;SDS011;11588;51.178;4.852;2023-11-21T06:05:44;2.05;;;1.83;;
22843;SDS011;11588;51.178;4.852;2023-11-21T06:08:11;3.28;;;2.65;;
22843;SDS011;11588;51.178;4.852;2023-11-21T06:10:37;6.63;;;3.47;;
22843;SDS011;11588;51.178;4.852;2023-11-21T06:13:05;3.28;;;2.47;;
22843;SDS011;11588;51.178;4.852;2023-11-21T06:15:33;7.50;;;4.32;;
22843;SDS011;11588;51.178;4.852;2023-11-21T06:18:00;8.43;;;3.00;;
22843;SDS011;11588;51.178;4.852;2023-11-21T06:20:27;5.53;;;3.38;;
22843;SDS011;11588;51.178;4.852;2023-11-21T06:22:54;3.70;;;2.33;;
22843;SDS011;11588;51.178;4.852;2023-11-21T06:25:21;4.25;;;3.90;;
22843;SDS011;11588;51.178;4.852;2023-11-21T06:27:48;5.68;;;3.15;;
22843;SDS011;11588;51.178;4.852;2023-11-21T06:30:15;6.28;;;2.63;;
22843;SDS011;11588;51.178;4.852;2023-11-21T06:32:42;8.25;;;4.05;;
22843;SDS011;11588;51.178;4.852;2023-11-21T06:35:12;6.68;;;3.67;;
22843;SDS011;11588;51.178;4.852;2023-11-21T06:37:39;8.43;;;4.22;;
22843;SDS011;11588;51.178;4.852;2023-11-21T06:40:06;2.75;;;2.55;;
22843;SDS011;11588;51.178;4.852;2023-11-21T06:42:33;12.20;;;6.25;;
22843;SDS011;11588;51.178;4.852;2023-11-21T06:45:00;5.00;;;3.35;;
22843;SDS011;11588;51.178;4.852;2023-11-21T06:47:30;4.57;;;3.20;;
22843;SDS011;11588;51.178;4.852;2023-11-21T06:49:57;6.30;;;4.72;;
22843;SDS011;11588;51.178;4.852;2023-11-21T06:52:24;4.40;;;3.67;;
22843;SDS011;11588;51.178;4.852;2023-11-21T06:54:51;12.13;;;5.47;;
22843;SDS011;11588;51.178;4.852;2023-11-21T06:57:17;5.57;;;2.78;;
22843;SDS011;11588;51.178;4.852;2023-11-21T06:59:44;2.92;;;2.72;;
22843;SDS011;11588;51.178;4.852;2023-11-21T07:02:11;5.18;;;3.35;;
22843;SDS011;11588;51.178;4.852;2023-11-21T07:04:38;3.75;;;3.22;;
22843;SDS011;11588;51.178;4.852;2023-11-21T07:07:05;7.82;;;4.05;;
22843;SDS011;11588;51.178;4.852;2023-11-21T07:09:33;7.45;;;3.40;;
22843;SDS011;11588;51.178;4.852;2023-11-21T07:12:00;7.50;;;2.90;;
22843;SDS011;11588;51.178;4.852;2023-11-21T07:14:28;5.07;;;2.90;;
22843;SDS011;11588;51.178;4.852;2023-11-21T07:16:54;13.70;;;2.17;;
22843;SDS011;11588;51.178;4.852;2023-11-21T07:19:21;4.28;;;3.17;;
22843;SDS011;11588;51.178;4.852;2023-11-21T07:21:48;4.70;;;3.92;;
22843;SDS011;11588;51.178;4.852;2023-11-21T07:24:17;5.45;;;3.95;;
22843;SDS011;11588;51.178;4.852;2023-11-21T07:26:44;9.02;;;3.55;;
22843;SDS011;11588;51.178;4.852;2023-11-21T07:29:11;5.43;;;2.92;;
22843;SDS011;11588;51.178;4.852;2023-11-21T07:31:38;3.05;;;2.03;;
22843;SDS011;11588;51.178;4.852;2023-11-21T07:34:05;7.85;;;2.90;;
22843;SDS011;11588;51.178;4.852;2023-11-21T07:36:32;6.53;;;3.72;;
22843;SDS011;11588;51.178;4.852;2023-11-21T07:38:59;5.97;;;3.30;;
22843;SDS011;11588;51.178;4.852;2023-11-21T07:41:25;7.78;;;3.38;;
22843;SDS011;11588;51.178;4.852;2023-11-21T07:43:52;4.35;;;2.42;;
22843;SDS011;11588;51.178;4.852;2023-11-21T07:46:19;8.75;;;3.55;;
22843;SDS011;11588;51.178;4.852;2023-11-21T07:48:46;4.07;;;3.08;;
22843;SDS011;11588;51.178;4.852;2023-11-21T07:51:13;10.88;;;3.53;;
22843;SDS011;11588;51.178;4.852;2023-11-21T07:53:40;3.65;;;2.65;;
22843;SDS011;11588;51.178;4.852;2023-11-21T07:56:07;12.35;;;3.78;;
22843;SDS011;11588;51.178;4.852;2023-11-21T07:58:35;9.52;;;4.18;;
22843;SDS011;11588;51.178;4.852;2023-11-21T08:01:02;3.03;;;2.75;;
22843;SDS011;11588;51.178;4.852;2023-11-21T08:03:29;5.47;;;2.88;;
22843;SDS011;11588;51.178;4.852;2023-11-21T08:05:57;9.75;;;3.95;;
22843;SDS011;11588;51.178;4.852;2023-11-21T08:08:24;5.25;;;4.00;;
22843;SDS011;11588;51.178;4.852;2023-11-21T08:10:51;7.25;;;4.40;;
22843;SDS011;11588;51.178;4.852;2023-11-21T08:13:28;10.05;;;3.05;;
22843;SDS011;11588;51.178;4.852;2023-11-21T08:15:55;3.78;;;3.50;;
22843;SDS011;11588;51.178;4.852;2023-11-21T08:18:23;10.63;;;3.50;;
22843;SDS011;11588;51.178;4.852;2023-11-21T08:20:50;11.57;;;3.88;;
22843;SDS011;11588;51.178;4.852;2023-11-21T08:23:16;9.27;;;3.70;;
22843;SDS011;11588;51.178;4.852;2023-11-21T08:25:43;4.90;;;2.50;;
22843;SDS011;11588;51.178;4.852;2023-11-21T08:28:10;3.78;;;2.50;;
22843;SDS011;11588;51.178;4.852;2023-11-21T08:30:37;3.83;;;3.50;;
22843;SDS011;11588;51.178;4.852;2023-11-21T08:33:04;5.43;;;3.92;;
22843;SDS011;11588;51.178;4.852;2023-11-21T08:35:31;5.32;;;2.45;;
22843;SDS011;11588;51.178;4.852;2023-11-21T08:37:57;7.30;;;2.97;;
22843;SDS011;11588;51.178;4.852;2023-11-21T08:40:24;4.18;;;3.63;;
22843;SDS011;11588;51.178;4.852;2023-11-21T08:42:51;7.60;;;3.80;;
22843;SDS011;11588;51.178;4.852;2023-11-21T08:45:19;2.65;;;2.25;;
22843;SDS011;11588;51.178;4.852;2023-11-21T08:47:45;6.78;;;3.15;;
22843;SDS011;11588;51.178;4.852;2023-11-21T08:50:13;8.00;;;1.90;;
22843;SDS011;11588;51.178;4.852;2023-11-21T08:52:41;4.53;;;2.70;;
22843;SDS011;11588;51.178;4.852;2023-11-21T08:55:08;6.28;;;3.70;;
22843;SDS011;11588;51.178;4.852;2023-11-21T08:57:35;4.00;;;1.98;;
22843;SDS011;11588;51.178;4.852;2023-11-21T09:00:03;5.30;;;2.65;;
22843;SDS011;11588;51.178;4.852;2023-11-21T09:02:35;4.75;;;3.47;;
22843;SDS011;11588;51.178;4.852;2023-11-21T09:05:04;4.68;;;3.38;;
22843;SDS011;11588;51.178;4.852;2023-11-21T09:07:31;4.63;;;2.15;;
22843;SDS011;11588;51.178;4.852;2023-11-21T09:09:58;4.70;;;2.15;;
22843;SDS011;11588;51.178;4.852;2023-11-21T09:12:25;4.55;;;1.77;;
22843;SDS011;11588;51.178;4.852;2023-11-21T09:14:51;1.38;;;1.17;;
22843;SDS011;11588;51.178;4.852;2023-11-21T09:17:18;2.65;;;1.55;;
22843;SDS011;11588;51.178;4.852;2023-11-21T09:19:45;3.35;;;1.63;;
22843;SDS011;11588;51.178;4.852;2023-11-21T09:22:17;4.20;;;2.35;;
22843;SDS011;11588;51.178;4.852;2023-11-21T09:24:44;7.10;;;2.90;;
22843;SDS011;11588;51.178;4.852;2023-11-21T09:27:11;6.93;;;1.58;;
22843;SDS011;11588;51.178;4.852;2023-11-21T09:29:37;2.42;;;1.13;;
22843;SDS011;11588;51.178;4.852;2023-11-21T09:32:05;4.05;;;1.67;;
22843;SDS011;11588;51.178;4.852;2023-11-21T09:34:35;2.80;;;1.58;;
22843;SDS011;11588;51.178;4.852;2023-11-21T09:37:04;3.42;;;1.38;;
22843;SDS011;11588;51.178;4.852;2023-11-21T09:39:35;4.95;;;1.90;;
22843;SDS011;11588;51.178;4.852;2023-11-21T09:44:32;1.55;;;1.45;;
22843;SDS011;11588;51.178;4.852;2023-11-21T09:47:02;2.90;;;2.13;;
22843;SDS011;11588;51.178;4.852;2023-11-21T09:49:29;1.95;;;1.63;;
22843;SDS011;11588;51.178;4.852;2023-11-21T09:52:01;4.57;;;1.98;;
22843;SDS011;11588;51.178;4.852;2023-11-21T09:54:30;6.07;;;2.22;;
22843;SDS011;11588;51.178;4.852;2023-11-21T09:56:59;4.25;;;1.70;;
22843;SDS011;11588;51.178;4.852;2023-11-21T09:59:27;4.65;;;1.73;;
22843;SDS011;11588;51.178;4.852;2023-11-21T10:01:59;3.40;;;2.20;;
22843;SDS011;11588;51.178;4.852;2023-11-21T10:04:25;15.93;;;2.63;;
22843;SDS011;11588;51.178;4.852;2023-11-21T10:06:53;1.52;;;1.42;;
22843;SDS011;11588;51.178;4.852;2023-11-21T10:09:20;4.15;;;2.00;;
22843;SDS011;11588;51.178;4.852;2023-11-21T10:11:47;3.72;;;1.85;;
22843;SDS011;11588;51.178;4.852;2023-11-21T10:14:16;1.73;;;1.63;;
22843;SDS011;11588;51.178;4.852;2023-11-21T10:16:44;2.20;;;2.00;;
22843;SDS011;11588;51.178;4.852;2023-11-21T10:19:13;4.03;;;1.10;;
22843;SDS011;11588;51.178;4.852;2023-11-21T10:21:42;1.65;;;0.98;;
22843;SDS011;11588;51.178;4.852;2023-11-21T10:24:09;1.95;;;1.20;;
22843;SDS011;11588;51.178;4.852;2023-11-21T10:26:36;1.35;;;1.20;;
22843;SDS011;11588;51.178;4.852;2023-11-21T10:29:03;2.72;;;0.95;;
22843;SDS011;11588;51.178;4.852;2023-11-21T10:31:30;1.38;;;0.95;;
22843;SDS011;11588;51.178;4.852;2023-11-21T10:34:11;1.35;;;1.08;;
22843;SDS011;11588;51.178;4.852;2023-11-21T10:36:39;1.50;;;0.90;;
22843;SDS011;11588;51.178;4.852;2023-11-21T10:39:06;1.13;;;0.90;;
22843;SDS011;11588;51.178;4.852;2023-11-21T10:41:35;1.73;;;0.90;;
22843;SDS011;11588;51.178;4.852;2023-11-21T10:44:02;2.03;;;1.27;;
22843;SDS011;11588;51.178;4.852;2023-11-21T10:46:34;1.40;;;0.98;;
22843;SDS011;11588;51.178;4.852;2023-11-21T10:49:01;4.93;;;1.58;;
22843;SDS011;11588;51.178;4.852;2023-11-21T10:51:28;1.55;;;1.13;;
22843;SDS011;11588;51.178;4.852;2023-11-21T10:53:55;2.78;;;0.68;;
22843;SDS011;11588;51.178;4.852;2023-11-21T10:56:23;1.40;;;1.08;;
22843;SDS011;11588;51.178;4.852;2023-11-21T10:58:50;0.70;;;0.68;;
22843;SDS011;11588;51.178;4.852;2023-11-21T11:01:18;0.80;;;0.80;;
22843;SDS011;11588;51.178;4.852;2023-11-21T11:03:47;1.48;;;0.80;;
22843;SDS011;11588;51.178;4.852;2023-11-21T11:06:15;0.20;;;0.20;;
22843;SDS011;11588;51.178;4.852;2023-11-21T11:08:42;2.08;;;1.27;;
22843;SDS011;11588;51.178;4.852;2023-11-21T11:11:09;2.20;;;0.65;;
22843;SDS011;11588;51.178;4.852;2023-11-21T11:13:37;1.40;;;1.30;;
22843;SDS011;11588;51.178;4.852;2023-11-21T11:16:04;0.70;;;0.65;;
22843;SDS011;11588;51.178;4.852;2023-11-21T11:18:34;1.08;;;0.60;;
22843;SDS011;11588;51.178;4.852;2023-11-21T11:26:24;0.82;;;0.82;;
22843;SDS011;11588;51.178;4.852;2023-11-21T11:29:03;1.40;;;0.82;;
22843;SDS011;11588;51.178;4.852;2023-11-21T11:34:16;0.47;;;0.38;;
22843;SDS011;11588;51.178;4.852;2023-11-21T11:36:49;0.63;;;0.52;;
22843;SDS011;11588;51.178;4.852;2023-11-21T11:41:58;5.70;;;1.08;;
22843;SDS011;11588;51.178;4.852;2023-11-21T11:47:12;0.45;;;0.40;;
22843;SDS011;11588;51.178;4.852;2023-11-21T11:54:52;1.05;;;0.95;;
22843;SDS011;11588;51.178;4.852;2023-11-21T11:57:19;0.68;;;0.68;;
22843;SDS011;11588;51.178;4.852;2023-11-21T12:02:25;0.80;;;0.70;;
22843;SDS011;11588;51.178;4.852;2023-11-21T12:04:55;7.57;;;1.63;;
22843;SDS011;11588;51.178;4.852;2023-11-21T12:07:23;0.97;;;0.67;;
22843;SDS011;11588;51.178;4.852;2023-11-21T12:09:50;4.53;;;1.52;;
22843;SDS011;11588;51.178;4.852;2023-11-21T12:12:17;1.27;;;1.13;;
22843;SDS011;11588;51.178;4.852;2023-11-21T12:14:45;1.63;;;1.45;;
22843;SDS011;11588;51.178;4.852;2023-11-21T12:17:12;2.15;;;1.13;;
22843;SDS011;11588;51.178;4.852;2023-11-21T12:19:39;0.73;;;0.73;;
22843;SDS011;11588;51.178;4.852;2023-11-21T12:22:07;1.05;;;0.95;;
22843;SDS011;11588;51.178;4.852;2023-11-21T12:24:34;1.48;;;0.60;;
22843;SDS011;11588;51.178;4.852;2023-11-21T12:27:01;1.00;;;0.88;;
22843;SDS011;11588;51.178;4.852;2023-11-21T12:29:27;0.90;;;0.57;;
22843;SDS011;11588;51.178;4.852;2023-11-21T12:31:56;1.52;;;0.80;;
22843;SDS011;11588;51.178;4.852;2023-11-21T12:34:23;1.05;;;0.75;;
22843;SDS011;11588;51.178;4.852;2023-11-21T12:36:49;0.68;;;0.68;;
22843;SDS011;11588;51.178;4.852;2023-11-21T12:39:17;7.82;;;1.48;;
22843;SDS011;11588;51.178;4.852;2023-11-21T12:41:44;1.58;;;0.80;;
22843;SDS011;11588;51.178;4.852;2023-11-21T12:44:12;0.10;;;0.00;;
22843;SDS011;11588;51.178;4.852;2023-11-21T12:46:40;0.68;;;0.68;;
22843;SDS011;11588;51.178;4.852;2023-11-21T12:49:07;0.13;;;0.13;;
22843;SDS011;11588;51.178;4.852;2023-11-21T12:51:34;0.63;;;0.43;;
22843;SDS011;11588;51.178;4.852;2023-11-21T12:54:01;0.40;;;0.40;;
22843;SDS011;11588;51.178;4.852;2023-11-21T12:56:27;0.20;;;0.20;;
22843;SDS011;11588;51.178;4.852;2023-11-21T12:58:54;0.77;;;0.30;;
22843;SDS011;11588;51.178;4.852;2023-11-21T13:01:25;2.13;;;1.50;;
22843;SDS011;11588;51.178;4.852;2023-11-21T13:03:56;0.80;;;0.52;;
22843;SDS011;11588;51.178;4.852;2023-11-21T13:06:23;1.00;;;0.55;;
22843;SDS011;11588;51.178;4.852;2023-11-21T13:08:52;0.40;;;0.40;;
22843;SDS011;11588;51.178;4.852;2023-11-21T13:11:20;0.50;;;0.50;;
22843;SDS011;11588;51.178;4.852;2023-11-21T13:13:47;0.43;;;0.43;;
22843;SDS011;11588;51.178;4.852;2023-11-21T13:16:14;0.85;;;0.68;;
22843;SDS011;11588;51.178;4.852;2023-11-21T13:18:41;0.35;;;0.25;;
22843;SDS011;11588;51.178;4.852;2023-11-21T13:21:08;0.20;;;0.20;;
22843;SDS011;11588;51.178;4.852;2023-11-21T13:23:41;0.75;;;0.43;;
22843;SDS011;11588;51.178;4.852;2023-11-21T13:26:08;0.25;;;0.22;;
22843;SDS011;11588;51.178;4.852;2023-11-21T13:28:36;0.20;;;0.20;;
22843;SDS011;11588;51.178;4.852;2023-11-21T13:31:04;0.17;;;0.17;;
22843;SDS011;11588;51.178;4.852;2023-11-21T13:33:36;0.63;;;0.55;;
22843;SDS011;11588;51.178;4.852;2023-11-21T13:36:05;0.95;;;0.65;;
22843;SDS011;11588;51.178;4.852;2023-11-21T13:38:34;0.70;;;0.30;;
22843;SDS011;11588;51.178;4.852;2023-11-21T13:41:02;0.38;;;0.35;;
22843;SDS011;11588;51.178;4.852;2023-11-21T13:43:35;1.33;;;0.93;;
22843;SDS011;11588;51.178;4.852;2023-11-21T13:46:01;3.28;;;0.60;;
22843;SDS011;11588;51.178;4.852;2023-11-21T13:48:29;1.40;;;0.70;;
22843;SDS011;11588;51.178;4.852;2023-11-21T13:51:04;0.82;;;0.52;;
22843;SDS011;11588;51.178;4.852;2023-11-21T13:53:38;1.00;;;0.57;;
22843;SDS011;11588;51.178;4.852;2023-11-21T13:56:05;5.38;;;0.52;;
22843;SDS011;11588;51.178;4.852;2023-11-21T13:58:32;1.77;;;0.80;;
22843;SDS011;11588;51.178;4.852;2023-11-21T14:01:09;0.85;;;0.50;;
22843;SDS011;11588;51.178;4.852;2023-11-21T14:03:46;1.55;;;0.80;;
22843;SDS011;11588;51.178;4.852;2023-11-21T14:06:18;1.20;;;0.88;;
22843;SDS011;11588;51.178;4.852;2023-11-21T14:08:51;1.08;;;0.75;;
22843;SDS011;11588;51.178;4.852;2023-11-21T14:11:18;1.67;;;1.00;;
22843;SDS011;11588;51.178;4.852;2023-11-21T14:13:48;1.10;;;0.75;;
22843;SDS011;11588;51.178;4.852;2023-11-21T14:16:15;0.73;;;0.68;;
22843;SDS011;11588;51.178;4.852;2023-11-21T14:18:43;2.00;;;0.45;;
22843;SDS011;11588;51.178;4.852;2023-11-21T14:21:22;2.45;;;0.30;;
22843;SDS011;11588;51.178;4.852;2023-11-21T14:23:48;2.58;;;1.13;;
22843;SDS011;11588;51.178;4.852;2023-11-21T14:26:15;1.00;;;0.88;;
22843;SDS011;11588;51.178;4.852;2023-11-21T14:28:43;4.05;;;1.30;;
22843;SDS011;11588;51.178;4.852;2023-11-21T14:31:10;1.30;;;0.98;;
22843;SDS011;11588;51.178;4.852;2023-11-21T14:33:44;1.20;;;0.50;;
22843;SDS011;11588;51.178;4.852;2023-11-21T14:36:12;0.60;;;0.32;;
22843;SDS011;11588;51.178;4.852;2023-11-21T14:38:38;0.17;;;0.17;;
22843;SDS011;11588;51.178;4.852;2023-11-21T14:41:06;2.95;;;1.00;;
22843;SDS011;11588;51.178;4.852;2023-11-21T14:43:34;1.13;;;0.90;;
22843;SDS011;11588;51.178;4.852;2023-11-21T14:46:02;1.42;;;0.95;;
22843;SDS011;11588;51.178;4.852;2023-11-21T14:48:30;0.47;;;0.45;;
22843;SDS011;11588;51.178;4.852;2023-11-21T14:51:04;1.95;;;0.70;;
22843;SDS011;11588;51.178;4.852;2023-11-21T14:53:50;1.60;;;0.50;;
22843;SDS011;11588;51.178;4.852;2023-11-21T14:56:20;0.52;;;0.52;;
22843;SDS011;11588;51.178;4.852;2023-11-21T14:58:53;1.65;;;0.70;;
22843;SDS011;11588;51.178;4.852;2023-11-21T15:01:20;1.02;;;0.52;;
22843;SDS011;11588;51.178;4.852;2023-11-21T15:04:02;2.10;;;0.88;;
22843;SDS011;11588;51.178;4.852;2023-11-21T15:06:29;1.42;;;0.68;;
22843;SDS011;11588;51.178;4.852;2023-11-21T15:08:57;1.27;;;0.82;;
22843;SDS011;11588;51.178;4.852;2023-11-21T15:11:34;0.70;;;0.70;;
22843;SDS011;11588;51.178;4.852;2023-11-21T15:14:01;5.80;;;0.82;;